sensor_id;sensor_type;location;lat;lon;timestamp;pressure;altitude;pressure_sealevel;temperature;humidity
81299;BME280;70766;53.170;18.160;2023-10-19T00:01:16;100775.77;;;3.82;100.00
81299;BME280;70766;53.170;18.160;2023-10-19T00:03:46;100770.52;;;3.76;100.00
81299;BME280;70766;53.170;18.160;2023-10-19T00:06:17;100766.81;;;3.68;100.00
81299;BME280;70766;53.170;18.160;2023-10-19T00:08:46;100758.08;;;3.59;100.00
81299;BME280;70766;53.170;18.160;2023-10-19T00:11:15;100755.58;;;3.53;100.00
81299;BME280;70766;53.170;18.160;2023-10-19T00:13:54;100751.23;;;3.45;100.00
81299;BME280;70766;53.170;18.160;2023-10-19T00:16:23;100744.94;;;3.37;100.00
81299;BME280;70766;53.170;18.160;2023-10-19T00:18:57;100745.58;;;3.29;100.00
81299;BME280;70766;53.170;18.160;2023-10-19T00:21:27;100744.55;;;3.19;100.00
81299;BME280;70766;53.170;18.160;2023-10-19T00:23:57;100742.42;;;3.12;100.00
81299;BME280;70766;53.170;18.160;2023-10-19T00:26:27;100742.23;;;3.04;100.00
81299;BME280;70766;53.170;18.160;2023-10-19T00:29:01;100740.63;;;2.96;100.00
81299;BME280;70766;53.170;18.160;2023-10-19T00:31:42;100734.83;;;2.91;100.00
81299;BME280;70766;53.170;18.160;2023-10-19T00:34:12;100732.17;;;2.89;100.00
81299;BME280;70766;53.170;18.160;2023-10-19T00:36:41;100731.00;;;2.94;100.00
81299;BME280;70766;53.170;18.160;2023-10-19T00:39:09;100727.41;;;2.96;100.00
81299;BME280;70766;53.170;18.160;2023-10-19T00:41:49;100720.88;;;3.02;100.00
81299;BME280;70766;53.170;18.160;2023-10-19T00:44:18;100715.78;;;3.07;100.00
81299;BME280;70766;53.170;18.160;2023-10-19T00:47:10;100708.56;;;3.15;100.00
81299;BME280;70766;53.170;18.160;2023-10-19T00:49:41;100707.42;;;3.22;100.00
81299;BME280;70766;53.170;18.160;2023-10-19T00:52:12;100704.98;;;3.28;100.00
81299;BME280;70766;53.170;18.160;2023-10-19T00:54:52;100703.69;;;3.30;100.00
81299;BME280;70766;53.170;18.160;2023-10-19T00:57:23;100701.77;;;3.33;100.00
81299;BME280;70766;53.170;18.160;2023-10-19T01:00:03;100704.86;;;3.36;100.00
81299;BME280;70766;53.170;18.160;2023-10-19T01:02:41;100703.85;;;3.37;100.00
81299;BME280;70766;53.170;18.160;2023-10-19T01:05:14;100702.20;;;3.35;100.00
81299;BME280;70766;53.170;18.160;2023-10-19T01:07:43;100702.99;;;3.33;100.00
81299;BME280;70766;53.170;18.160;2023-10-19T01:10:13;100701.36;;;3.32;100.00
81299;BME280;70766;53.170;18.160;2023-10-19T01:12:56;100699.30;;;3.31;100.00
81299;BME280;70766;53.170;18.160;2023-10-19T01:15:27;100696.85;;;3.31;100.00
81299;BME280;70766;53.170;18.160;2023-10-19T01:17:57;100699.71;;;3.29;100.00
81299;BME280;70766;53.170;18.160;2023-10-19T01:20:28;100698.13;;;3.29;100.00
81299;BME280;70766;53.170;18.160;2023-10-19T01:23:08;100693.85;;;3.28;100.00
81299;BME280;70766;53.170;18.160;2023-10-19T01:28:10;100685.36;;;3.25;100.00
81299;BME280;70766;53.170;18.160;2023-10-19T01:30:39;100683.95;;;3.23;100.00
81299;BME280;70766;53.170;18.160;2023-10-19T01:33:08;100684.70;;;3.24;100.00
81299;BME280;70766;53.170;18.160;2023-10-19T01:35:44;100682.76;;;3.25;100.00
81299;BME280;70766;53.170;18.160;2023-10-19T01:38:31;100677.40;;;3.22;100.00
81299;BME280;70766;53.170;18.160;2023-10-19T01:41:01;100674.39;;;3.20;100.00
81299;BME280;70766;53.170;18.160;2023-10-19T01:43:34;100670.71;;;3.20;100.00
81299;BME280;70766;53.170;18.160;2023-10-19T01:46:02;100667.52;;;3.17;100.00
81299;BME280;70766;53.170;18.160;2023-10-19T01:48:42;100663.16;;;3.12;100.00
81299;BME280;70766;53.170;18.160;2023-10-19T01:51:11;100660.11;;;3.13;100.00
81299;BME280;70766;53.170;18.160;2023-10-19T01:53:42;100658.14;;;3.07;100.00
81299;BME280;70766;53.170;18.160;2023-10-19T01:56:15;100649.05;;;3.00;100.00
81299;BME280;70766;53.170;18.160;2023-10-19T01:58:46;100646.98;;;2.99;100.00
81299;BME280;70766;53.170;18.160;2023-10-19T02:01:18;100645.27;;;2.97;100.00
81299;BME280;70766;53.170;18.160;2023-10-19T02:03:58;100644.44;;;2.95;100.00
81299;BME280;70766;53.170;18.160;2023-10-19T02:06:30;100641.64;;;2.91;100.00
81299;BME280;70766;53.170;18.160;2023-10-19T02:09:19;100640.89;;;2.90;100.00
81299;BME280;70766;53.170;18.160;2023-10-19T02:12:00;100642.33;;;2.83;100.00
81299;BME280;70766;53.170;18.160;2023-10-19T02:14:34;100637.63;;;2.83;100.00
81299;BME280;70766;53.170;18.160;2023-10-19T02:17:02;100635.42;;;2.83;100.00
81299;BME280;70766;53.170;18.160;2023-10-19T02:19:32;100633.96;;;2.81;100.00
81299;BME280;70766;53.170;18.160;2023-10-19T02:22:02;100624.28;;;2.78;100.00
81299;BME280;70766;53.170;18.160;2023-10-19T02:24:40;100618.18;;;2.75;100.00
81299;BME280;70766;53.170;18.160;2023-10-19T02:27:08;100616.77;;;2.71;100.00
81299;BME280;70766;53.170;18.160;2023-10-19T02:29:46;100609.66;;;2.67;100.00
81299;BME280;70766;53.170;18.160;2023-10-19T02:32:14;100608.21;;;2.65;100.00
81299;BME280;70766;53.170;18.160;2023-10-19T02:34:46;100607.55;;;2.65;100.00
81299;BME280;70766;53.170;18.160;2023-10-19T02:37:14;100603.80;;;2.63;100.00
81299;BME280;70766;53.170;18.160;2023-10-19T02:39:45;100599.83;;;2.60;100.00
81299;BME280;70766;53.170;18.160;2023-10-19T02:42:13;100593.91;;;2.59;100.00
81299;BME280;70766;53.170;18.160;2023-10-19T02:44:41;100589.27;;;2.57;100.00
81299;BME280;70766;53.170;18.160;2023-10-19T02:47:09;100586.15;;;2.53;100.00
81299;BME280;70766;53.170;18.160;2023-10-19T02:49:38;100578.79;;;2.52;100.00
81299;BME280;70766;53.170;18.160;2023-10-19T02:52:07;100572.58;;;2.51;100.00
81299;BME280;70766;53.170;18.160;2023-10-19T02:54:38;100569.99;;;2.48;100.00
81299;BME280;70766;53.170;18.160;2023-10-19T02:57:07;100570.67;;;2.47;100.00
81299;BME280;70766;53.170;18.160;2023-10-19T02:59:37;100567.73;;;2.45;100.00
81299;BME280;70766;53.170;18.160;2023-10-19T03:02:06;100558.37;;;2.40;100.00
81299;BME280;70766;53.170;18.160;2023-10-19T03:04:43;100554.30;;;2.36;100.00
81299;BME280;70766;53.170;18.160;2023-10-19T03:07:14;100547.42;;;2.35;100.00
81299;BME280;70766;53.170;18.160;2023-10-19T03:09:44;100542.44;;;2.32;100.00
81299;BME280;70766;53.170;18.160;2023-10-19T03:12:21;100540.13;;;2.32;100.00
81299;BME280;70766;53.170;18.160;2023-10-19T03:14:55;100537.76;;;2.34;100.00
81299;BME280;70766;53.170;18.160;2023-10-19T03:17:23;100538.25;;;2.34;100.00
81299;BME280;70766;53.170;18.160;2023-10-19T03:19:53;100541.18;;;2.36;100.00
81299;BME280;70766;53.170;18.160;2023-10-19T03:22:24;100538.60;;;2.40;100.00
81299;BME280;70766;53.170;18.160;2023-10-19T03:24:52;100539.81;;;2.39;100.00
81299;BME280;70766;53.170;18.160;2023-10-19T03:27:41;100536.68;;;2.37;100.00
81299;BME280;70766;53.170;18.160;2023-10-19T03:30:12;100530.00;;;2.35;100.00
81299;BME280;70766;53.170;18.160;2023-10-19T03:32:46;100530.67;;;2.39;100.00
81299;BME280;70766;53.170;18.160;2023-10-19T03:35:14;100525.27;;;2.40;100.00
81299;BME280;70766;53.170;18.160;2023-10-19T03:37:43;100516.92;;;2.47;100.00
81299;BME280;70766;53.170;18.160;2023-10-19T03:40:16;100508.98;;;2.49;100.00
81299;BME280;70766;53.170;18.160;2023-10-19T03:42:53;100505.91;;;2.45;100.00
81299;BME280;70766;53.170;18.160;2023-10-19T03:45:22;100503.61;;;2.48;100.00
81299;BME280;70766;53.170;18.160;2023-10-19T03:47:52;100508.39;;;2.51;100.00
81299;BME280;70766;53.170;18.160;2023-10-19T03:50:23;100502.77;;;2.51;100.00
81299;BME280;70766;53.170;18.160;2023-10-19T03:52:53;100499.96;;;2.53;100.00
81299;BME280;70766;53.170;18.160;2023-10-19T03:55:21;100490.86;;;2.53;100.00
81299;BME280;70766;53.170;18.160;2023-10-19T03:57:51;100491.35;;;2.53;100.00
81299;BME280;70766;53.170;18.160;2023-10-19T04:00:23;100487.95;;;2.52;100.00
81299;BME280;70766;53.170;18.160;2023-10-19T04:02:56;100486.30;;;2.51;100.00
81299;BME280;70766;53.170;18.160;2023-10-19T04:05:27;100485.06;;;2.52;100.00
81299;BME280;70766;53.170;18.160;2023-10-19T04:07:57;100476.33;;;2.53;100.00
81299;BME280;70766;53.170;18.160;2023-10-19T04:10:26;100474.52;;;2.54;100.00
81299;BME280;70766;53.170;18.160;2023-10-19T04:13:00;100468.76;;;2.54;100.00
81299;BME280;70766;53.170;18.160;2023-10-19T04:15:29;100463.11;;;2.53;100.00
81299;BME280;70766;53.170;18.160;2023-10-19T04:18:03;100463.30;;;2.54;100.00
81299;BME280;70766;53.170;18.160;2023-10-19T04:20:39;100464.42;;;2.54;100.00
81299;BME280;70766;53.170;18.160;2023-10-19T04:23:23;100468.36;;;2.50;100.00
81299;BME280;70766;53.170;18.160;2023-10-19T04:25:55;100475.62;;;2.49;100.00
81299;BME280;70766;53.170;18.160;2023-10-19T04:28:31;100476.08;;;2.46;100.00
81299;BME280;70766;53.170;18.160;2023-10-19T04:31:07;100472.91;;;2.46;100.00
81299;BME280;70766;53.170;18.160;2023-10-19T04:33:35;100469.24;;;2.49;100.00
81299;BME280;70766;53.170;18.160;2023-10-19T04:36:04;100469.45;;;2.47;100.00
81299;BME280;70766;53.170;18.160;2023-10-19T04:38:37;100473.48;;;2.45;100.00
81299;BME280;70766;53.170;18.160;2023-10-19T04:41:07;100470.41;;;2.44;100.00
81299;BME280;70766;53.170;18.160;2023-10-19T04:43:36;100463.35;;;2.45;100.00
81299;BME280;70766;53.170;18.160;2023-10-19T04:46:10;100459.17;;;2.46;100.00
81299;BME280;70766;53.170;18.160;2023-10-19T04:48:41;100455.60;;;2.48;100.00
81299;BME280;70766;53.170;18.160;2023-10-19T04:51:10;100449.58;;;2.48;100.00
81299;BME280;70766;53.170;18.160;2023-10-19T04:53:38;100443.19;;;2.48;100.00
81299;BME280;70766;53.170;18.160;2023-10-19T04:56:07;100445.63;;;2.46;100.00
81299;BME280;70766;53.170;18.160;2023-10-19T04:58:40;100445.73;;;2.43;100.00
81299;BME280;70766;53.170;18.160;2023-10-19T05:01:09;100447.41;;;2.42;100.00
81299;BME280;70766;53.170;18.160;2023-10-19T05:03:42;100447.16;;;2.42;100.00
81299;BME280;70766;53.170;18.160;2023-10-19T05:06:10;100444.52;;;2.43;100.00
81299;BME280;70766;53.170;18.160;2023-10-19T05:08:38;100441.89;;;2.49;100.00
81299;BME280;70766;53.170;18.160;2023-10-19T05:11:07;100441.86;;;2.49;100.00
81299;BME280;70766;53.170;18.160;2023-10-19T05:13:35;100443.29;;;2.46;100.00
81299;BME280;70766;53.170;18.160;2023-10-19T05:16:04;100444.70;;;2.45;100.00
81299;BME280;70766;53.170;18.160;2023-10-19T05:18:32;100443.84;;;2.40;100.00
81299;BME280;70766;53.170;18.160;2023-10-19T05:21:02;100437.17;;;2.41;100.00
81299;BME280;70766;53.170;18.160;2023-10-19T05:23:30;100435.83;;;2.43;100.00
81299;BME280;70766;53.170;18.160;2023-10-19T05:26:03;100434.73;;;2.44;100.00
81299;BME280;70766;53.170;18.160;2023-10-19T05:28:32;100438.36;;;2.44;100.00
81299;BME280;70766;53.170;18.160;2023-10-19T05:31:01;100447.07;;;2.45;100.00
81299;BME280;70766;53.170;18.160;2023-10-19T05:33:29;100445.16;;;2.47;100.00
81299;BME280;70766;53.170;18.160;2023-10-19T05:35:58;100444.32;;;2.54;100.00
81299;BME280;70766;53.170;18.160;2023-10-19T05:38:26;100444.85;;;2.61;100.00
81299;BME280;70766;53.170;18.160;2023-10-19T05:40:57;100444.65;;;2.64;100.00
81299;BME280;70766;53.170;18.160;2023-10-19T05:43:27;100442.64;;;2.69;100.00
81299;BME280;70766;53.170;18.160;2023-10-19T05:45:56;100444.34;;;2.75;100.00
81299;BME280;70766;53.170;18.160;2023-10-19T05:48:25;100449.67;;;2.78;100.00
81299;BME280;70766;53.170;18.160;2023-10-19T05:50:53;100454.58;;;2.84;100.00
81299;BME280;70766;53.170;18.160;2023-10-19T05:53:22;100452.20;;;2.92;100.00
81299;BME280;70766;53.170;18.160;2023-10-19T05:55:50;100447.17;;;2.97;100.00
81299;BME280;70766;53.170;18.160;2023-10-19T05:58:19;100443.73;;;3.06;100.00
81299;BME280;70766;53.170;18.160;2023-10-19T06:00:48;100441.26;;;3.13;100.00
81299;BME280;70766;53.170;18.160;2023-10-19T06:03:20;100435.62;;;3.24;100.00
81299;BME280;70766;53.170;18.160;2023-10-19T06:05:49;100423.73;;;3.30;100.00
81299;BME280;70766;53.170;18.160;2023-10-19T06:08:17;100425.98;;;3.38;100.00
81299;BME280;70766;53.170;18.160;2023-10-19T06:10:51;100424.24;;;3.43;100.00
81299;BME280;70766;53.170;18.160;2023-10-19T06:13:20;100434.54;;;3.50;100.00
81299;BME280;70766;53.170;18.160;2023-10-19T06:15:50;100433.50;;;3.57;100.00
81299;BME280;70766;53.170;18.160;2023-10-19T06:18:20;100428.20;;;3.64;100.00
81299;BME280;70766;53.170;18.160;2023-10-19T06:20:48;100422.52;;;3.71;100.00
81299;BME280;70766;53.170;18.160;2023-10-19T06:23:19;100426.90;;;3.80;100.00
81299;BME280;70766;53.170;18.160;2023-10-19T06:25:47;100428.41;;;3.87;100.00
81299;BME280;70766;53.170;18.160;2023-10-19T06:28:15;100426.56;;;3.95;100.00
81299;BME280;70766;53.170;18.160;2023-10-19T06:30:43;100427.77;;;3.98;100.00
81299;BME280;70766;53.170;18.160;2023-10-19T06:33:13;100426.87;;;4.01;100.00
81299;BME280;70766;53.170;18.160;2023-10-19T06:35:41;100423.42;;;4.05;100.00
81299;BME280;70766;53.170;18.160;2023-10-19T06:38:09;100424.90;;;4.11;100.00
81299;BME280;70766;53.170;18.160;2023-10-19T06:40:37;100422.30;;;4.16;100.00
81299;BME280;70766;53.170;18.160;2023-10-19T06:43:05;100419.50;;;4.17;100.00
81299;BME280;70766;53.170;18.160;2023-10-19T06:45:33;100421.85;;;4.25;100.00
81299;BME280;70766;53.170;18.160;2023-10-19T06:48:02;100426.48;;;4.32;100.00
81299;BME280;70766;53.170;18.160;2023-10-19T06:50:33;100432.15;;;4.40;100.00
81299;BME280;70766;53.170;18.160;2023-10-19T06:53:01;100425.85;;;4.47;100.00
81299;BME280;70766;53.170;18.160;2023-10-19T06:55:33;100423.90;;;4.54;100.00
81299;BME280;70766;53.170;18.160;2023-10-19T06:58:01;100414.39;;;4.55;100.00
81299;BME280;70766;53.170;18.160;2023-10-19T07:00:31;100409.76;;;4.59;100.00
81299;BME280;70766;53.170;18.160;2023-10-19T07:03:01;100410.86;;;4.64;100.00
81299;BME280;70766;53.170;18.160;2023-10-19T07:05:32;100409.26;;;4.71;100.00
81299;BME280;70766;53.170;18.160;2023-10-19T07:08:00;100401.80;;;4.75;100.00
81299;BME280;70766;53.170;18.160;2023-10-19T07:10:29;100400.83;;;4.77;100.00
81299;BME280;70766;53.170;18.160;2023-10-19T07:12:58;100399.60;;;4.84;100.00
81299;BME280;70766;53.170;18.160;2023-10-19T07:15:26;100396.95;;;4.92;100.00
81299;BME280;70766;53.170;18.160;2023-10-19T07:17:56;100386.14;;;4.99;100.00
81299;BME280;70766;53.170;18.160;2023-10-19T07:20:25;100379.13;;;5.04;100.00
81299;BME280;70766;53.170;18.160;2023-10-19T07:22:58;100377.39;;;5.11;100.00
81299;BME280;70766;53.170;18.160;2023-10-19T07:25:34;100371.79;;;5.24;100.00
81299;BME280;70766;53.170;18.160;2023-10-19T07:28:11;100367.23;;;5.32;100.00
81299;BME280;70766;53.170;18.160;2023-10-19T07:30:41;100361.15;;;5.36;100.00
81299;BME280;70766;53.170;18.160;2023-10-19T07:33:10;100356.58;;;5.42;100.00
81299;BME280;70766;53.170;18.160;2023-10-19T07:35:46;100358.59;;;5.45;100.00
81299;BME280;70766;53.170;18.160;2023-10-19T07:38:15;100360.98;;;5.43;100.00
81299;BME280;70766;53.170;18.160;2023-10-19T07:40:44;100361.54;;;5.44;100.00
81299;BME280;70766;53.170;18.160;2023-10-19T07:43:12;100361.50;;;5.47;100.00
81299;BME280;70766;53.170;18.160;2023-10-19T07:45:41;100359.39;;;5.48;100.00
81299;BME280;70766;53.170;18.160;2023-10-19T07:48:11;100356.86;;;5.40;100.00
81299;BME280;70766;53.170;18.160;2023-10-19T07:50:39;100354.16;;;5.39;100.00
81299;BME280;70766;53.170;18.160;2023-10-19T07:53:11;100353.38;;;5.38;100.00
81299;BME280;70766;53.170;18.160;2023-10-19T07:55:39;100351.67;;;5.43;100.00
81299;BME280;70766;53.170;18.160;2023-10-19T07:58:08;100354.10;;;5.52;100.00
81299;BME280;70766;53.170;18.160;2023-10-19T08:00:36;100345.65;;;5.63;100.00
81299;BME280;70766;53.170;18.160;2023-10-19T08:03:06;100341.52;;;5.72;100.00
81299;BME280;70766;53.170;18.160;2023-10-19T08:05:36;100335.98;;;5.82;100.00
81299;BME280;70766;53.170;18.160;2023-10-19T08:08:04;100333.21;;;5.95;100.00
81299;BME280;70766;53.170;18.160;2023-10-19T08:10:34;100328.98;;;6.08;100.00
81299;BME280;70766;53.170;18.160;2023-10-19T08:13:02;100327.91;;;6.18;100.00
81299;BME280;70766;53.170;18.160;2023-10-19T08:15:31;100320.91;;;6.32;100.00
81299;BME280;70766;53.170;18.160;2023-10-19T08:17:59;100317.61;;;6.49;100.00
81299;BME280;70766;53.170;18.160;2023-10-19T08:20:27;100309.37;;;6.60;100.00
81299;BME280;70766;53.170;18.160;2023-10-19T08:23:00;100303.42;;;6.83;100.00
81299;BME280;70766;53.170;18.160;2023-10-19T08:25:34;100301.23;;;6.96;100.00
81299;BME280;70766;53.170;18.160;2023-10-19T08:28:22;100293.75;;;7.08;100.00
81299;BME280;70766;53.170;18.160;2023-10-19T08:30:51;100290.95;;;7.10;100.00
81299;BME280;70766;53.170;18.160;2023-10-19T08:33:29;100284.00;;;7.11;100.00
81299;BME280;70766;53.170;18.160;2023-10-19T08:36:02;100282.45;;;7.17;100.00
81299;BME280;70766;53.170;18.160;2023-10-19T08:38:30;100277.16;;;7.28;100.00
81299;BME280;70766;53.170;18.160;2023-10-19T08:40:59;100271.44;;;7.33;100.00
81299;BME280;70766;53.170;18.160;2023-10-19T08:43:28;100273.31;;;7.48;100.00
81299;BME280;70766;53.170;18.160;2023-10-19T08:45:57;100275.34;;;7.61;100.00
81299;BME280;70766;53.170;18.160;2023-10-19T08:48:25;100277.09;;;7.63;100.00
81299;BME280;70766;53.170;18.160;2023-10-19T08:50:53;100272.38;;;7.73;100.00
81299;BME280;70766;53.170;18.160;2023-10-19T08:53:24;100268.71;;;7.79;100.00
81299;BME280;70766;53.170;18.160;2023-10-19T08:55:52;100264.70;;;7.81;100.00
81299;BME280;70766;53.170;18.160;2023-10-19T08:58:22;100263.20;;;7.93;100.00
81299;BME280;70766;53.170;18.160;2023-10-19T09:00:51;100260.66;;;8.05;100.00
81299;BME280;70766;53.170;18.160;2023-10-19T09:03:24;100258.30;;;8.22;100.00
81299;BME280;70766;53.170;18.160;2023-10-19T09:05:55;100260.45;;;8.41;100.00
81299;BME280;70766;53.170;18.160;2023-10-19T09:08:24;100257.59;;;8.42;100.00
81299;BME280;70766;53.170;18.160;2023-10-19T09:10:53;100251.84;;;8.52;100.00
81299;BME280;70766;53.170;18.160;2023-10-19T09:13:22;100253.45;;;8.55;100.00
81299;BME280;70766;53.170;18.160;2023-10-19T09:15:53;100244.79;;;8.57;100.00
81299;BME280;70766;53.170;18.160;2023-10-19T09:18:24;100243.34;;;8.61;100.00
81299;BME280;70766;53.170;18.160;2023-10-19T09:20:56;100244.05;;;8.75;100.00
81299;BME280;70766;53.170;18.160;2023-10-19T09:23:35;100246.11;;;8.80;100.00
81299;BME280;70766;53.170;18.160;2023-10-19T09:26:05;100247.52;;;8.88;100.00
81299;BME280;70766;53.170;18.160;2023-10-19T09:28:36;100245.63;;;8.85;100.00
81299;BME280;70766;53.170;18.160;2023-10-19T09:31:06;100243.12;;;8.92;100.00
81299;BME280;70766;53.170;18.160;2023-10-19T09:33:41;100236.82;;;8.88;100.00
81299;BME280;70766;53.170;18.160;2023-10-19T09:36:13;100230.15;;;8.85;100.00
81299;BME280;70766;53.170;18.160;2023-10-19T09:38:45;100222.18;;;8.75;100.00
81299;BME280;70766;53.170;18.160;2023-10-19T09:41:20;100227.61;;;8.80;100.00
81299;BME280;70766;53.170;18.160;2023-10-19T09:43:50;100220.77;;;8.79;100.00
81299;BME280;70766;53.170;18.160;2023-10-19T09:46:26;100215.46;;;8.80;100.00
81299;BME280;70766;53.170;18.160;2023-10-19T09:48:55;100202.92;;;8.61;100.00
81299;BME280;70766;53.170;18.160;2023-10-19T09:51:23;100198.38;;;8.53;100.00
81299;BME280;70766;53.170;18.160;2023-10-19T09:56:38;100190.95;;;8.51;100.00
81299;BME280;70766;53.170;18.160;2023-10-19T09:59:29;100183.69;;;8.62;100.00
81299;BME280;70766;53.170;18.160;2023-10-19T10:02:10;100175.14;;;8.62;100.00
81299;BME280;70766;53.170;18.160;2023-10-19T10:04:42;100171.80;;;8.67;100.00
81299;BME280;70766;53.170;18.160;2023-10-19T10:07:14;100163.34;;;8.78;100.00
81299;BME280;70766;53.170;18.160;2023-10-19T10:10:06;100159.38;;;8.64;100.00
81299;BME280;70766;53.170;18.160;2023-10-19T10:12:35;100152.21;;;8.76;100.00
81299;BME280;70766;53.170;18.160;2023-10-19T10:15:04;100144.78;;;8.79;100.00
81299;BME280;70766;53.170;18.160;2023-10-19T10:17:38;100138.41;;;8.83;100.00
81299;BME280;70766;53.170;18.160;2023-10-19T10:22:39;100140.13;;;9.04;100.00
81299;BME280;70766;53.170;18.160;2023-10-19T10:25:26;100144.95;;;8.98;100.00
81299;BME280;70766;53.170;18.160;2023-10-19T10:27:56;100149.67;;;9.04;100.00
81299;BME280;70766;53.170;18.160;2023-10-19T10:30:24;100143.52;;;9.23;100.00
81299;BME280;70766;53.170;18.160;2023-10-19T10:32:53;100141.36;;;9.56;100.00
81299;BME280;70766;53.170;18.160;2023-10-19T10:38:06;100144.52;;;9.65;100.00
81299;BME280;70766;53.170;18.160;2023-10-19T10:43:12;100158.38;;;9.60;100.00
81299;BME280;70766;53.170;18.160;2023-10-19T10:45:40;100159.07;;;9.86;100.00
81299;BME280;70766;53.170;18.160;2023-10-19T10:48:18;100152.99;;;10.04;100.00
81299;BME280;70766;53.170;18.160;2023-10-19T10:50:50;100146.98;;;10.14;100.00
81299;BME280;70766;53.170;18.160;2023-10-19T10:53:18;100137.80;;;10.02;98.21
81299;BME280;70766;53.170;18.160;2023-10-19T10:55:46;100136.71;;;10.11;100.00
81299;BME280;70766;53.170;18.160;2023-10-19T10:58:17;100139.42;;;10.17;100.00
81299;BME280;70766;53.170;18.160;2023-10-19T11:00:46;100137.45;;;9.84;98.59
81299;BME280;70766;53.170;18.160;2023-10-19T11:03:22;100140.59;;;9.93;99.75
81299;BME280;70766;53.170;18.160;2023-10-19T11:05:52;100142.53;;;9.99;100.00
81299;BME280;70766;53.170;18.160;2023-10-19T11:08:24;100139.41;;;10.11;100.00
81299;BME280;70766;53.170;18.160;2023-10-19T11:10:52;100139.75;;;10.14;97.58
81299;BME280;70766;53.170;18.160;2023-10-19T11:13:24;100136.86;;;10.08;98.43
81299;BME280;70766;53.170;18.160;2023-10-19T11:15:57;100137.27;;;10.10;99.36
81299;BME280;70766;53.170;18.160;2023-10-19T11:18:35;100137.52;;;10.22;99.75
81299;BME280;70766;53.170;18.160;2023-10-19T11:21:09;100126.73;;;10.37;96.49
81299;BME280;70766;53.170;18.160;2023-10-19T11:23:49;100119.04;;;10.36;96.86
81299;BME280;70766;53.170;18.160;2023-10-19T11:26:20;100107.07;;;10.38;94.94
81299;BME280;70766;53.170;18.160;2023-10-19T11:29:02;100094.20;;;10.42;93.72
81299;BME280;70766;53.170;18.160;2023-10-19T11:31:32;100085.76;;;10.08;93.55
81299;BME280;70766;53.170;18.160;2023-10-19T11:34:06;100091.66;;;10.06;93.95
81299;BME280;70766;53.170;18.160;2023-10-19T11:36:36;100090.73;;;10.17;95.78
81299;BME280;70766;53.170;18.160;2023-10-19T11:39:06;100081.77;;;10.25;96.05
81299;BME280;70766;53.170;18.160;2023-10-19T11:41:39;100082.58;;;10.39;98.33
81299;BME280;70766;53.170;18.160;2023-10-19T11:44:07;100082.73;;;10.51;94.14
81299;BME280;70766;53.170;18.160;2023-10-19T11:46:36;100081.94;;;10.38;92.95
81299;BME280;70766;53.170;18.160;2023-10-19T11:49:05;100077.83;;;10.32;93.05
81299;BME280;70766;53.170;18.160;2023-10-19T11:51:33;100074.12;;;10.35;93.03
81299;BME280;70766;53.170;18.160;2023-10-19T11:54:01;100064.21;;;10.28;92.77
81299;BME280;70766;53.170;18.160;2023-10-19T11:56:30;100056.28;;;10.22;92.73
81299;BME280;70766;53.170;18.160;2023-10-19T11:58:58;100048.79;;;10.31;93.63
81299;BME280;70766;53.170;18.160;2023-10-19T12:01:26;100038.08;;;10.32;92.88
81299;BME280;70766;53.170;18.160;2023-10-19T12:03:55;100031.39;;;10.33;92.71
81299;BME280;70766;53.170;18.160;2023-10-19T12:06:23;100028.27;;;10.42;91.30
81299;BME280;70766;53.170;18.160;2023-10-19T12:08:52;100023.31;;;10.43;90.25
81299;BME280;70766;53.170;18.160;2023-10-19T12:11:20;100019.00;;;10.14;90.67
81299;BME280;70766;53.170;18.160;2023-10-19T12:13:49;100011.11;;;10.30;89.89
81299;BME280;70766;53.170;18.160;2023-10-19T12:16:18;100010.19;;;10.36;90.88
81299;BME280;70766;53.170;18.160;2023-10-19T12:18:48;100013.76;;;10.55;91.14
81299;BME280;70766;53.170;18.160;2023-10-19T12:21:16;100013.73;;;10.59;89.97
81299;BME280;70766;53.170;18.160;2023-10-19T12:23:46;100009.08;;;10.55;87.83
81299;BME280;70766;53.170;18.160;2023-10-19T12:26:19;100005.61;;;10.57;88.17
81299;BME280;70766;53.170;18.160;2023-10-19T12:28:48;100005.15;;;10.30;89.41
81299;BME280;70766;53.170;18.160;2023-10-19T12:31:17;100005.21;;;10.42;89.71
81299;BME280;70766;53.170;18.160;2023-10-19T12:33:51;100008.61;;;10.47;89.26
81299;BME280;70766;53.170;18.160;2023-10-19T12:36:20;100010.19;;;10.42;90.35
81299;BME280;70766;53.170;18.160;2023-10-19T12:39:01;100000.79;;;10.47;89.73
81299;BME280;70766;53.170;18.160;2023-10-19T12:41:30;99999.90;;;10.42;90.31
81299;BME280;70766;53.170;18.160;2023-10-19T12:43:59;99997.09;;;10.67;89.35
81299;BME280;70766;53.170;18.160;2023-10-19T12:46:36;99988.42;;;10.81;89.37
81299;BME280;70766;53.170;18.160;2023-10-19T12:49:05;99981.78;;;10.95;87.66
81299;BME280;70766;53.170;18.160;2023-10-19T12:51:36;99980.89;;;10.96;86.45
81299;BME280;70766;53.170;18.160;2023-10-19T12:54:06;99979.82;;;10.97;86.16
81299;BME280;70766;53.170;18.160;2023-10-19T12:56:38;99981.48;;;11.05;86.54
81299;BME280;70766;53.170;18.160;2023-10-19T12:59:07;99979.04;;;11.13;86.07
81299;BME280;70766;53.170;18.160;2023-10-19T13:01:35;99971.05;;;10.73;83.77
81299;BME280;70766;53.170;18.160;2023-10-19T13:04:04;99968.43;;;10.61;84.75
81299;BME280;70766;53.170;18.160;2023-10-19T13:06:48;99958.57;;;10.57;85.21
81299;BME280;70766;53.170;18.160;2023-10-19T13:09:17;99954.34;;;10.17;86.37
81299;BME280;70766;53.170;18.160;2023-10-19T13:11:50;99953.08;;;10.10;86.81
81299;BME280;70766;53.170;18.160;2023-10-19T13:14:20;99955.30;;;10.11;87.35